Time;durP1;ratioP1;P1;durP2;ratioP2;P2;SDS_P1;SDS_P2;PMS_P1;PMS_P2;Temp;Humidity;BMP_temperature;BMP_pressure;BME280_temperature;BME280_humidity;BME280_pressure;Samples;Min_cycle;Max_cycle;Signal;HPM_P1;HPM_P2
2022/06/10 00:00:42;;;;;;;11.48;4.38;;;13.30;84.60;;;;;;5057712;28;20068;-79
2022/06/10 00:03:13;;;;;;;8.55;5.25;;;13.30;84.70;;;;;;5057079;28;20048;-81
2022/06/10 00:05:40;;;;;;;12.15;5.45;;;13.20;84.60;;;;;;5057363;28;20059;-81
2022/06/10 00:08:08;;;;;;;13.43;5.32;;;13.20;84.60;;;;;;5057930;28;20451;-80
2022/06/10 00:10:34;;;;;;;14.10;6.20;;;13.20;84.70;;;;;;5074222;28;20045;-81
2022/06/10 00:13:01;;;;;;;12.93;5.40;;;13.20;84.90;;;;;;5057106;28;20106;-80
2022/06/10 00:15:26;;;;;;;12.80;5.65;;;13.20;85.30;;;;;;5073554;28;20412;-82
2022/06/10 00:17:52;;;;;;;10.40;5.82;;;13.20;85.50;;;;;;5056355;28;20036;-81
2022/06/10 00:20:22;;;;;;;8.35;4.97;;;13.20;85.90;;;;;;5056727;28;20037;-81
2022/06/10 00:22:48;;;;;;;16.50;5.72;;;13.10;86.10;;;;;;5073465;28;20041;-79
2022/06/10 00:25:14;;;;;;;11.07;5.13;;;13.20;85.90;;;;;;5074224;28;20040;-81
2022/06/10 00:27:40;;;;;;;9.50;4.60;;;13.10;85.90;;;;;;5056734;28;20048;-79
2022/06/10 00:30:07;;;;;;;12.35;5.07;;;13.20;85.80;;;;;;5057162;28;20040;-81
2022/06/10 00:32:33;;;;;;;9.57;5.03;;;13.20;85.40;;;;;;5040248;28;20066;-81
2022/06/10 00:34:59;;;;;;;11.40;5.25;;;13.20;85.50;;;;;;5056964;28;20062;-80
2022/06/10 00:37:25;;;;;;;9.52;4.38;;;13.10;85.40;;;;;;5073112;28;20420;-81
2022/06/10 00:39:51;;;;;;;9.82;5.30;;;13.20;85.40;;;;;;5072944;28;20032;-79
2022/06/10 00:42:17;;;;;;;13.45;4.97;;;13.10;85.40;;;;;;5056653;28;20440;-81
2022/06/10 00:44:44;;;;;;;12.27;5.68;;;13.00;85.10;;;;;;5039999;28;20128;-80
2022/06/10 00:47:26;;;;;;;10.50;4.78;;;12.90;84.90;;;;;;5072969;28;20048;-81
2022/06/10 00:49:57;;;;;;;9.38;5.05;;;12.80;85.00;;;;;;5056200;28;20040;-81
2022/06/10 00:52:34;;;;;;;14.45;5.82;;;12.70;85.30;;;;;;5073358;28;20045;-81
2022/06/10 00:55:02;;;;;;;9.73;5.00;;;12.60;85.40;;;;;;5056080;28;20041;-81
2022/06/10 00:57:34;;;;;;;10.63;5.70;;;12.60;85.50;;;;;;5056123;28;20087;-80
2022/06/10 01:00:06;;;;;;;9.00;4.90;;;12.60;85.70;;;;;;5072650;28;20039;-79
2022/06/10 01:02:33;;;;;;;9.13;5.60;;;12.60;85.70;;;;;;5056143;28;20032;-79
2022/06/10 01:05:01;;;;;;;10.55;5.90;;;12.60;85.60;;;;;;5072967;28;20036;-81
2022/06/10 01:07:35;;;;;;;8.73;4.97;;;12.60;85.80;;;;;;5072670;28;20032;-80
2022/06/10 01:10:04;;;;;;;13.63;6.40;;;12.50;85.70;;;;;;5072546;28;20079;-79
2022/06/10 01:12:44;;;;;;;8.98;4.60;;;12.50;86.10;;;;;;5072407;28;20052;-80
2022/06/10 01:15:27;;;;;;;12.02;5.57;;;12.50;85.90;;;;;;5055883;28;20058;-79
2022/06/10 01:18:18;;;;;;;16.73;6.32;;;12.50;85.80;;;;;;5055921;28;20046;-79
2022/06/10 01:20:52;;;;;;;7.53;5.07;;;12.50;85.80;;;;;;5055652;28;20067;-80
2022/06/10 01:23:53;;;;;;;6.55;4.25;;;12.40;85.70;;;;;;5072314;28;20114;-80
2022/06/10 01:29:35;;;;;;;13.30;5.10;;;12.40;85.80;;;;;;5071449;28;20040;-81
2022/06/10 01:32:11;;;;;;;10.73;4.57;;;12.40;85.80;;;;;;5072348;28;20037;-80
2022/06/10 01:35:14;;;;;;;19.02;5.78;;;12.40;85.90;;;;;;5072435;28;20040;-79
2022/06/10 01:38:13;;;;;;;11.63;5.00;;;12.40;86.00;;;;;;5056563;28;20048;-79
2022/06/10 01:41:01;;;;;;;10.40;4.68;;;12.40;86.50;;;;;;5041726;28;20139;-79
2022/06/10 01:43:53;;;;;;;6.75;4.57;;;12.50;86.50;;;;;;5072446;28;20075;-79
2022/06/10 01:46:27;;;;;;;10.68;4.97;;;12.50;86.40;;;;;;5053455;28;20488;-79
2022/06/10 01:49:05;;;;;;;9.60;4.43;;;12.40;86.30;;;;;;5072472;28;20385;-79
2022/06/10 01:51:58;;;;;;;8.57;4.60;;;12.40;86.30;;;;;;5072446;28;20036;-80
2022/06/10 01:54:40;;;;;;;7.25;3.78;;;12.30;86.10;;;;;;5055256;28;20037;-81
2022/06/10 01:57:27;;;;;;;9.70;4.22;;;12.40;86.30;;;;;;5072187;28;20040;-81
2022/06/10 02:00:00;;;;;;;7.53;3.65;;;12.40;86.30;;;;;;5072087;28;20033;-80
2022/06/10 02:02:32;;;;;;;13.77;5.13;;;12.40;86.30;;;;;;5072015;28;20040;-79
2022/06/10 02:05:19;;;;;;;11.98;4.65;;;12.40;86.40;;;;;;5072178;28;20036;-80
2022/06/10 02:08:12;;;;;;;9.75;4.63;;;12.40;86.70;;;;;;5071846;28;20049;-79
2022/06/10 02:10:46;;;;;;;8.23;4.88;;;12.40;86.70;;;;;;5071758;28;20044;-80
2022/06/10 02:13:16;;;;;;;11.23;4.40;;;12.30;86.50;;;;;;5071786;28;20067;-78
2022/06/10 02:15:47;;;;;;;10.10;4.57;;;12.30;86.60;;;;;;5071606;28;20037;-80
2022/06/10 02:18:17;;;;;;;12.73;4.60;;;12.20;86.90;;;;;;5055234;28;20037;-80
2022/06/10 02:20:48;;;;;;;11.95;4.38;;;12.20;87.00;;;;;;5071878;28;20040;-80
2022/06/10 02:23:20;;;;;;;14.65;4.68;;;12.20;87.40;;;;;;5054936;28;20036;-81
2022/06/10 02:25:54;;;;;;;9.57;5.20;;;12.20;87.50;;;;;;5055160;28;20123;-80
2022/06/10 02:28:30;;;;;;;13.95;5.25;;;12.30;88.00;;;;;;5072867;28;20426;-80
2022/06/10 02:31:08;;;;;;;10.63;5.68;;;12.30;88.00;;;;;;5054991;28;20047;-81
2022/06/10 02:33:36;;;;;;;6.95;3.53;;;12.30;87.80;;;;;;5072279;28;20396;-81
2022/06/10 02:36:02;;;;;;;14.35;5.45;;;12.20;87.60;;;;;;5071690;28;20066;-80
2022/06/10 02:38:59;;;;;;;13.05;5.55;;;12.30;87.80;;;;;;5054976;28;20048;-80
2022/06/10 02:41:57;;;;;;;13.15;4.97;;;12.30;87.70;;;;;;5059199;28;20041;-80
2022/06/10 02:44:41;;;;;;;14.35;4.88;;;12.30;88.40;;;;;;5069924;28;20052;-81
2022/06/10 02:47:24;;;;;;;12.10;4.63;;;12.30;87.90;;;;;;5075356;28;20043;-79
2022/06/10 02:49:50;;;;;;;9.65;4.53;;;12.40;87.60;;;;;;5058536;28;20095;-80
2022/06/10 02:52:18;;;;;;;8.98;4.93;;;12.40;87.80;;;;;;5058787;28;20036;-81
2022/06/10 02:54:45;;;;;;;10.43;3.95;;;12.40;88.20;;;;;;5075401;28;20067;-78
2022/06/10 03:03:05;;;;;;;14.82;5.22;;;12.50;88.10;;;;;;5075228;28;20063;-80
2022/06/10 03:05:44;;;;;;;15.80;5.50;;;12.50;88.50;;;;;;5074953;28;20393;-81
2022/06/10 03:08:20;;;;;;;15.05;5.30;;;12.50;89.80;;;;;;5058220;28;20037;-80
2022/06/10 03:11:15;;;;;;;13.00;5.38;;;12.50;89.70;;;;;;5074530;28;20128;-81
2022/06/10 03:13:55;;;;;;;15.10;5.03;;;12.50;89.90;;;;;;5058026;28;20511;-81
2022/06/10 03:16:56;;;;;;;14.85;5.97;;;12.50;89.30;;;;;;5058096;28;20045;-79
2022/06/10 03:19:40;;;;;;;12.63;5.38;;;12.50;90.40;;;;;;5067872;28;20048;-80
2022/06/10 03:22:15;;;;;;;14.20;4.50;;;12.50;90.30;;;;;;5074739;28;20037;-81
2022/06/10 03:24:46;;;;;;;14.18;5.03;;;12.60;90.00;;;;;;5057983;28;20041;-81
2022/06/10 03:27:37;;;;;;;14.32;4.97;;;12.50;89.70;;;;;;5074520;28;20527;-80
2022/06/10 03:30:17;;;;;;;13.35;4.47;;;12.60;90.00;;;;;;5074515;28;20047;-80
2022/06/10 03:33:08;;;;;;;11.50;4.55;;;12.60;89.20;;;;;;5074480;28;20047;-79
2022/06/10 03:36:00;;;;;;;12.60;4.70;;;12.60;89.00;;;;;;5055464;28;20052;-80
2022/06/10 03:38:27;;;;;;;14.57;5.13;;;12.60;89.20;;;;;;5074346;28;20037;-81
2022/06/10 03:40:55;;;;;;;14.38;5.43;;;12.60;89.30;;;;;;5041423;28;20369;-80
2022/06/10 03:43:22;;;;;;;14.40;4.65;;;12.60;89.80;;;;;;5074232;28;20041;-81
2022/06/10 03:46:00;;;;;;;14.18;4.93;;;12.60;89.30;;;;;;5074749;28;20048;-80
2022/06/10 03:48:28;;;;;;;11.30;4.50;;;12.60;89.20;;;;;;5074558;28;20489;-80
2022/06/10 03:50:55;;;;;;;11.57;5.05;;;12.50;89.40;;;;;;5074347;28;20037;-79
2022/06/10 03:53:23;;;;;;;14.00;5.82;;;12.50;89.40;;;;;;5073416;28;20124;-80
2022/06/10 03:55:49;;;;;;;12.63;6.35;;;12.50;89.30;;;;;;5074073;28;20048;-80
2022/06/10 03:58:16;;;;;;;9.15;4.38;;;12.50;89.70;;;;;;5073974;28;20059;-81
2022/06/10 04:00:42;;;;;;;13.57;4.70;;;12.50;89.30;;;;;;5057503;28;20119;-80
2022/06/10 04:03:08;;;;;;;11.52;4.80;;;12.50;89.70;;;;;;5024294;28;20051;-80
2022/06/10 04:05:34;;;;;;;13.20;4.95;;;12.50;89.50;;;;;;5040702;28;20041;-80
2022/06/10 04:08:00;;;;;;;10.93;4.85;;;12.60;89.20;;;;;;5074433;28;20092;-80
2022/06/10 04:10:28;;;;;;;10.07;4.30;;;12.60;89.50;;;;;;5056950;28;20037;-80
2022/06/10 04:12:53;;;;;;;10.32;4.18;;;12.60;89.80;;;;;;5057305;28;20136;-81
2022/06/10 04:15:20;;;;;;;11.77;5.10;;;12.70;89.50;;;;;;5073359;28;20144;-79
2022/06/10 04:17:49;;;;;;;11.68;5.60;;;12.70;90.00;;;;;;5073789;28;20514;-80
2022/06/10 04:20:18;;;;;;;14.52;4.47;;;12.80;89.80;;;;;;5056837;28;20036;-80
2022/06/10 04:22:44;;;;;;;16.17;5.05;;;12.80;89.80;;;;;;5056904;28;20040;-79
2022/06/10 04:25:10;;;;;;;12.15;4.68;;;12.80;89.90;;;;;;5056746;28;20047;-80
2022/06/10 04:27:36;;;;;;;8.48;4.25;;;12.90;89.70;;;;;;5056794;28;20041;-80
2022/06/10 04:30:04;;;;;;;12.55;4.38;;;12.90;89.80;;;;;;5073286;28;20041;-80
2022/06/10 04:32:29;;;;;;;12.15;4.55;;;13.00;90.30;;;;;;5073504;28;20044;-79
2022/06/10 04:34:55;;;;;;;13.75;4.55;;;13.00;90.10;;;;;;5056812;28;20043;-80
2022/06/10 04:37:21;;;;;;;10.15;4.35;;;13.00;90.10;;;;;;5073281;28;20090;-79
2022/06/10 04:39:46;;;;;;;12.85;4.07;;;13.00;89.70;;;;;;5056786;28;20264;-80
2022/06/10 04:42:12;;;;;;;10.68;4.32;;;13.10;89.80;;;;;;5073012;28;20476;-79
2022/06/10 04:44:38;;;;;;;13.38;4.43;;;13.10;89.90;;;;;;5072999;28;20395;-81
2022/06/10 04:47:06;;;;;;;13.70;5.00;;;13.10;89.70;;;;;;5072958;28;20032;-80
2022/06/10 04:49:31;;;;;;;15.43;4.43;;;13.10;89.60;;;;;;5040514;28;20500;-81
2022/06/10 04:51:57;;;;;;;8.75;4.60;;;13.10;89.80;;;;;;5040079;28;20036;-81
2022/06/10 04:54:23;;;;;;;9.02;4.03;;;13.20;89.40;;;;;;5039898;28;20080;-79
2022/06/10 04:56:48;;;;;;;13.95;4.95;;;13.20;89.50;;;;;;5056582;28;20377;-81
2022/06/10 04:59:14;;;;;;;17.52;4.53;;;13.20;90.00;;;;;;5056098;28;20119;-80
2022/06/10 05:01:40;;;;;;;11.82;4.32;;;13.20;89.40;;;;;;5056324;28;20048;-80
2022/06/10 05:04:06;;;;;;;12.93;4.63;;;13.30;89.50;;;;;;5055935;28;20036;-79
2022/06/10 05:06:31;;;;;;;27.27;5.75;;;13.30;89.50;;;;;;5072883;28;20051;-79
2022/06/10 05:08:57;;;;;;;14.52;5.30;;;13.30;90.20;;;;;;5072790;28;20373;-79
2022/06/10 05:11:23;;;;;;;17.40;4.43;;;13.40;89.90;;;;;;5038834;28;20033;-80
2022/06/10 05:13:49;;;;;;;16.38;5.43;;;13.50;90.20;;;;;;5054744;28;20059;-80
2022/06/10 05:16:14;;;;;;;10.50;4.68;;;13.50;90.10;;;;;;5037989;28;20044;-81
2022/06/10 05:18:41;;;;;;;12.20;4.60;;;13.60;90.20;;;;;;5038950;28;20124;-80
2022/06/10 05:21:07;;;;;;;11.82;5.22;;;13.70;90.00;;;;;;5055259;28;20094;-79
2022/06/10 05:23:33;;;;;;;11.25;4.22;;;13.70;89.80;;;;;;5071959;28;20075;-79
2022/06/10 05:25:59;;;;;;;16.33;5.65;;;13.90;90.30;;;;;;5038685;28;20044;-80
2022/06/10 05:28:25;;;;;;;15.80;4.90;;;14.00;91.00;;;;;;5056291;28;20037;-80
2022/06/10 05:30:51;;;;;;;18.90;5.43;;;14.00;90.90;;;;;;5072488;28;20131;-79
2022/06/10 05:33:17;;;;;;;11.88;4.95;;;14.00;91.30;;;;;;5055910;28;20079;-80
2022/06/10 05:35:44;;;;;;;14.52;5.22;;;14.00;91.40;;;;;;5038947;28;20080;-79
2022/06/10 05:38:11;;;;;;;17.08;5.53;;;14.10;91.40;;;;;;5039587;28;20040;-79
2022/06/10 05:40:36;;;;;;;14.60;4.70;;;14.10;91.70;;;;;;5072340;28;20476;-79
2022/06/10 05:43:04;;;;;;;11.80;5.10;;;14.10;91.40;;;;;;5054269;28;20037;-80
2022/06/10 05:45:30;;;;;;;15.35;5.10;;;14.10;91.60;;;;;;5069723;28;20040;-80
2022/06/10 05:48:00;;;;;;;9.77;4.68;;;14.10;91.70;;;;;;5069866;28;20513;-81
2022/06/10 05:50:36;;;;;;;15.40;5.18;;;14.10;91.40;;;;;;5051918;28;20491;-81
2022/06/10 05:53:04;;;;;;;13.65;5.72;;;14.20;91.70;;;;;;5068429;28;20055;-79
2022/06/10 05:55:34;;;;;;;15.55;5.40;;;14.20;91.20;;;;;;5050174;28;20040;-80
2022/06/10 05:58:00;;;;;;;14.68;5.32;;;14.20;91.50;;;;;;5052140;28;20059;-80
2022/06/10 06:00:29;;;;;;;17.27;5.47;;;14.20;91.30;;;;;;5050037;28;20400;-81
2022/06/10 06:02:55;;;;;;;12.32;4.60;;;14.30;91.40;;;;;;5068017;28;20036;-80
2022/06/10 06:05:22;;;;;;;14.07;6.32;;;14.30;91.60;;;;;;5052251;28;20044;-80
2022/06/10 06:07:49;;;;;;;13.63;5.88;;;14.40;91.90;;;;;;5054540;28;20044;-81
2022/06/10 06:10:18;;;;;;;13.93;5.55;;;14.40;92.50;;;;;;5038477;28;20053;-78
2022/06/10 06:12:44;;;;;;;20.10;6.57;;;14.50;92.00;;;;;;5070769;28;20065;-79
2022/06/10 06:15:13;;;;;;;20.70;7.68;;;14.50;92.10;;;;;;5053556;28;20051;-81
2022/06/10 06:17:39;;;;;;;20.23;7.40;;;14.50;92.60;;;;;;5070646;28;20036;-79
2022/06/10 06:20:06;;;;;;;14.00;6.00;;;14.60;92.10;;;;;;5056439;28;20038;-77
2022/06/10 06:22:32;;;;;;;11.05;5.50;;;14.60;91.70;;;;;;5058544;28;20041;-78
2022/06/10 06:24:57;;;;;;;16.35;6.45;;;14.70;92.10;;;;;;5075177;28;20044;-76
2022/06/10 06:27:23;;;;;;;21.23;7.43;;;14.70;91.50;;;;;;5058461;28;20127;-80
2022/06/10 06:29:50;;;;;;;14.02;7.03;;;14.70;91.40;;;;;;5058689;28;20048;-79
2022/06/10 06:32:16;;;;;;;17.77;7.70;;;14.70;92.30;;;;;;5075410;28;20075;-80
2022/06/10 06:34:42;;;;;;;14.20;8.40;;;14.70;93.20;;;;;;5074923;28;20484;-81
2022/06/10 06:37:11;;;;;;;20.92;8.10;;;14.70;92.70;;;;;;5075076;28;20063;-81
2022/06/10 06:39:37;;;;;;;17.52;7.32;;;14.70;92.90;;;;;;5058276;28;20036;-81
2022/06/10 06:42:03;;;;;;;15.32;8.45;;;14.70;93.10;;;;;;5058145;28;20032;-80
2022/06/10 06:44:30;;;;;;;17.02;8.10;;;14.70;92.80;;;;;;5042143;28;20059;-82
2022/06/10 06:46:55;;;;;;;13.77;8.07;;;14.70;93.30;;;;;;5075077;28;20040;-80
2022/06/10 06:49:24;;;;;;;22.63;7.90;;;14.70;93.60;;;;;;5075110;28;20044;-82
2022/06/10 06:51:50;;;;;;;16.13;9.00;;;14.70;93.90;;;;;;5074956;28;20040;-82
2022/06/10 06:54:16;;;;;;;17.40;8.18;;;14.60;94.20;;;;;;5058006;28;20047;-83
2022/06/10 06:56:42;;;;;;;18.88;8.95;;;14.60;94.10;;;;;;5041541;28;20185;-80
2022/06/10 06:59:08;;;;;;;16.65;9.30;;;14.70;94.80;;;;;;5041236;28;20492;-82
2022/06/10 07:01:35;;;;;;;20.80;10.18;;;14.60;94.40;;;;;;5057981;28;20040;-82
2022/06/10 07:04:02;;;;;;;17.48;9.98;;;14.70;95.00;;;;;;5057966;28;20041;-80
2022/06/10 07:06:28;;;;;;;18.77;11.38;;;14.70;95.00;;;;;;5058143;28;20047;-82
2022/06/10 07:08:54;;;;;;;18.95;9.40;;;14.70;95.50;;;;;;5057812;28;20442;-84
2022/06/10 07:11:19;;;;;;;18.67;10.50;;;14.80;95.50;;;;;;5041021;28;20131;-81
2022/06/10 07:13:45;;;;;;;20.17;10.10;;;14.80;95.70;;;;;;5057377;28;20060;-84
2022/06/10 07:16:11;;;;;;;13.95;9.77;;;14.80;94.90;;;;;;5057606;28;20143;-82
2022/06/10 07:18:37;;;;;;;21.25;11.20;;;14.80;95.10;;;;;;5057666;28;20131;-82
2022/06/10 07:21:03;;;;;;;18.35;11.20;;;14.90;96.00;;;;;;5040947;28;20036;-81
2022/06/10 07:23:29;;;;;;;20.30;11.48;;;14.90;96.10;;;;;;5057759;28;20395;-81
2022/06/10 07:25:55;;;;;;;16.13;11.57;;;15.00;95.80;;;;;;5057188;28;20123;-82
2022/06/10 07:28:21;;;;;;;18.77;11.15;;;15.00;96.20;;;;;;5056573;28;20044;-84
2022/06/10 07:30:48;;;;;;;13.75;10.65;;;15.00;96.10;;;;;;5040883;28;20074;-83
2022/06/10 07:33:13;;;;;;;17.10;12.27;;;15.10;95.60;;;;;;5057465;28;20392;-81
2022/06/10 07:35:39;;;;;;;20.90;14.00;;;15.10;96.00;;;;;;5073939;28;20043;-84
2022/06/10 07:38:06;;;;;;;21.23;13.18;;;15.20;96.30;;;;;;5040807;28;20044;-82
2022/06/10 07:43:30;;;;;;;17.20;11.98;;;15.30;95.80;;;;;;5073702;28;20082;-84
2022/06/10 07:45:56;;;;;;;26.02;12.65;;;15.30;95.40;;;;;;5073744;28;20040;-82
2022/06/10 07:48:22;;;;;;;20.25;11.57;;;15.30;95.90;;;;;;5057007;28;20102;-81
2022/06/10 07:50:49;;;;;;;19.55;11.93;;;15.30;95.70;;;;;;5073610;28;20055;-82
2022/06/10 07:53:16;;;;;;;19.58;12.05;;;15.30;95.70;;;;;;5040381;28;20036;-84
2022/06/10 07:55:44;;;;;;;23.30;12.15;;;15.30;95.60;;;;;;5073478;28;20480;-86
2022/06/10 07:58:10;;;;;;;18.63;10.52;;;15.30;95.90;;;;;;5057003;28;20032;-80
2022/06/10 08:00:37;;;;;;;23.15;12.35;;;15.30;96.20;;;;;;5057031;28;20048;-81
2022/06/10 08:03:03;;;;;;;20.98;12.55;;;15.40;96.20;;;;;;5040181;28;20537;-81
2022/06/10 08:05:29;;;;;;;19.60;10.65;;;15.30;96.50;;;;;;5056820;28;20041;-83
2022/06/10 08:07:55;;;;;;;15.40;11.85;;;15.30;96.20;;;;;;5073280;28;20048;-80
2022/06/10 08:10:34;;;;;;;18.67;12.27;;;15.40;95.60;;;;;;5073208;28;20044;-80
2022/06/10 08:13:00;;;;;;;18.52;11.70;;;15.40;95.50;;;;;;5073154;28;20056;-81
2022/06/10 08:15:28;;;;;;;20.65;12.40;;;15.50;95.30;;;;;;5056718;28;20040;-81
2022/06/10 08:17:56;;;;;;;27.70;12.68;;;15.50;95.50;;;;;;5073484;28;20051;-79
2022/06/10 08:23:14;;;;;;;21.48;12.85;;;15.70;95.20;;;;;;5073381;28;20063;-82
2022/06/10 08:25:41;;;;;;;17.85;11.88;;;15.80;95.10;;;;;;5073174;28;20063;-80
2022/06/10 08:28:07;;;;;;;19.13;12.52;;;15.80;95.00;;;;;;5056196;28;20050;-82
2022/06/10 08:30:33;;;;;;;18.08;10.95;;;16.00;94.80;;;;;;5072791;28;20123;-80
2022/06/10 08:33:03;;;;;;;22.10;13.02;;;16.00;94.60;;;;;;5072576;28;20488;-82
2022/06/10 08:35:30;;;;;;;18.25;11.10;;;16.10;94.30;;;;;;5072651;28;20078;-81
2022/06/10 08:37:56;;;;;;;20.17;10.25;;;16.10;93.80;;;;;;5072362;28;20052;-82
2022/06/10 08:40:35;;;;;;;15.35;8.75;;;16.20;93.40;;;;;;5039467;28;20036;-82
2022/06/10 08:43:17;;;;;;;12.93;6.90;;;16.20;93.20;;;;;;5055848;28;20037;-80
2022/06/10 08:46:09;;;;;;;13.60;7.07;;;16.20;93.10;;;;;;5058190;28;20401;-80
2022/06/10 08:48:59;;;;;;;16.42;8.15;;;16.20;92.80;;;;;;5052516;28;20047;-84
2022/06/10 08:51:55;;;;;;;15.13;8.40;;;16.20;92.60;;;;;;5052760;28;20049;-82
2022/06/10 08:54:36;;;;;;;17.98;8.25;;;16.10;92.50;;;;;;5052381;28;20485;-81
2022/06/10 08:57:15;;;;;;;15.02;7.60;;;16.20;92.40;;;;;;5035768;28;20044;-81
2022/06/10 08:59:46;;;;;;;13.50;7.38;;;16.30;92.00;;;;;;5052361;28;20043;-81
2022/06/10 09:02:26;;;;;;;12.73;7.22;;;16.40;92.00;;;;;;5052157;28;20033;-83
2022/06/10 09:04:54;;;;;;;14.68;7.00;;;16.40;91.60;;;;;;5051925;28;20040;-81
2022/06/10 09:07:28;;;;;;;13.38;7.20;;;16.50;91.40;;;;;;5051769;28;20037;-83
2022/06/10 09:09:57;;;;;;;20.35;8.40;;;16.50;91.30;;;;;;5034866;28;20036;-80
2022/06/10 09:13:11;;;;;;;14.13;9.27;;;16.50;91.30;;;;;;5052337;28;20045;-83
2022/06/10 09:15:58;;;;;;;17.38;9.15;;;16.70;90.80;;;;;;5052080;28;20044;-81
2022/06/10 09:18:49;;;;;;;22.02;10.73;;;16.90;90.60;;;;;;5035663;28;20049;-81
2022/06/10 09:21:48;;;;;;;15.63;8.85;;;17.00;89.00;;;;;;5051955;28;20045;-82
2022/06/10 09:24:25;;;;;;;16.70;8.35;;;17.10;89.00;;;;;;5052241;28;20052;-83
2022/06/10 09:27:31;;;;;;;14.45;8.18;;;17.20;88.70;;;;;;5052055;28;20056;-83
2022/06/10 09:29:59;;;;;;;17.77;9.40;;;17.30;88.30;;;;;;5052504;28;20532;-80
2022/06/10 09:32:32;;;;;;;16.13;8.27;;;17.40;87.70;;;;;;5051798;28;20056;-82
2022/06/10 09:35:25;;;;;;;14.57;7.07;;;17.40;87.40;;;;;;5051924;28;20393;-82
2022/06/10 09:38:09;;;;;;;18.75;8.70;;;17.40;86.50;;;;;;5052036;28;20044;-82
2022/06/10 09:40:42;;;;;;;;;;;17.50;87.30;;;;;;5052194;28;20481;-81
2022/06/10 09:43:19;;;;;;;17.95;9.60;;;17.50;86.60;;;;;;5051689;28;20007;-82
2022/06/10 09:46:10;;;;;;;19.25;9.90;;;17.40;86.20;;;;;;5035307;28;20394;-81
2022/06/10 09:48:54;;;;;;;18.02;10.05;;;17.50;87.00;;;;;;5051958;28;20098;-83
2022/06/10 09:51:41;;;;;;;20.35;8.80;;;17.50;86.90;;;;;;5050962;28;20041;-81
2022/06/10 09:54:21;;;;;;;19.10;9.77;;;17.50;87.00;;;;;;5051597;28;20131;-77
2022/06/10 09:57:08;;;;;;;18.73;8.55;;;17.40;87.30;;;;;;5051568;28;20044;-82
2022/06/10 09:59:54;;;;;;;20.80;10.13;;;17.30;86.90;;;;;;5051538;28;20037;-78
2022/06/10 10:02:41;;;;;;;15.73;9.60;;;17.20;86.60;;;;;;5035110;28;20056;-79
2022/06/10 10:05:21;;;;;;;17.13;8.55;;;17.20;86.40;;;;;;5035220;28;20084;-82
2022/06/10 10:07:56;;;;;;;17.95;9.27;;;17.20;86.90;;;;;;5051458;28;20093;-80
2022/06/10 10:10:25;;;;;;;16.73;9.38;;;17.30;86.90;;;;;;5034903;28;20060;-81
2022/06/10 10:13:29;;;;;;;18.45;10.73;;;17.20;86.90;;;;;;5051080;28;20056;-82
2022/06/10 10:16:00;;;;;;;18.35;9.40;;;17.30;86.60;;;;;;5034663;28;20052;-81
2022/06/10 10:18:48;;;;;;;20.05;9.55;;;17.20;86.50;;;;;;5051361;28;20041;-82
2022/06/10 10:21:24;;;;;;;15.98;9.20;;;17.30;87.10;;;;;;5034848;28;20444;-81
2022/06/10 10:23:53;;;;;;;15.55;9.45;;;17.30;87.20;;;;;;5051293;28;20110;-82
2022/06/10 10:26:27;;;;;;;13.52;9.90;;;17.30;87.10;;;;;;5034752;28;20037;-80
2022/06/10 10:29:01;;;;;;;16.08;9.38;;;17.30;87.20;;;;;;5051556;28;20447;-80
2022/06/10 10:31:30;;;;;;;17.60;12.20;;;17.30;87.20;;;;;;5051156;28;20051;-80
2022/06/10 10:33:58;;;;;;;14.88;12.57;;;17.40;87.20;;;;;;5034500;28;20052;-81
2022/06/10 10:36:44;;;;;;;17.08;13.82;;;17.50;87.00;;;;;;5034499;28;20049;-81
2022/06/10 10:39:36;;;;;;;20.25;15.85;;;17.50;87.60;;;;;;5051492;28;20040;-82
2022/06/10 10:42:16;;;;;;;22.30;14.77;;;17.50;89.00;;;;;;5051294;28;20041;-82
2022/06/10 10:44:47;;;;;;;17.67;12.00;;;17.50;88.80;;;;;;5034814;28;20106;-79
2022/06/10 10:47:12;;;;;;;15.18;10.05;;;17.70;88.70;;;;;;5051343;28;20389;-80
2022/06/10 10:49:52;;;;;;;15.30;10.07;;;18.00;88.40;;;;;;5051244;28;20041;-83
2022/06/10 10:52:28;;;;;;;12.68;9.50;;;18.20;87.70;;;;;;5050956;28;20036;-79
2022/06/10 10:54:57;;;;;;;23.58;9.95;;;18.20;87.00;;;;;;5051189;28;20385;-80
2022/06/10 10:57:31;;;;;;;16.65;8.05;;;18.40;86.40;;;;;;5034396;28;20048;-79
2022/06/10 11:00:09;;;;;;;17.58;9.35;;;18.40;86.40;;;;;;5034702;28;20037;-80
2022/06/10 11:02:35;;;;;;;12.95;9.05;;;18.50;86.00;;;;;;5054335;28;20033;-81
2022/06/10 11:05:35;;;;;;;17.77;9.07;;;18.50;85.90;;;;;;5054709;28;20051;-80
2022/06/10 11:08:12;;;;;;;15.98;9.75;;;18.50;84.60;;;;;;5054692;28;20127;-80
2022/06/10 11:10:55;;;;;;;15.52;10.02;;;18.40;84.80;;;;;;5037797;28;20049;-82
2022/06/10 11:13:34;;;;;;;18.13;11.52;;;18.40;85.20;;;;;;5037648;28;20065;-79
2022/06/10 11:17:02;;;;;;;19.30;10.85;;;18.20;84.40;;;;;;5054628;28;20450;-78
2022/06/10 11:19:34;;;;;;;15.75;10.48;;;18.20;84.80;;;;;;5009416;28;20060;-80
2022/06/10 11:22:02;;;;;;;15.00;10.30;;;18.20;83.80;;;;;;5016714;28;20044;-80
2022/06/10 11:24:40;;;;;;;22.83;11.75;;;18.40;84.10;;;;;;5041294;28;20049;-79
2022/06/10 11:27:26;;;;;;;14.80;9.85;;;18.60;82.00;;;;;;5054422;28;20041;-80
2022/06/10 11:30:00;;;;;;;16.63;8.75;;;18.90;81.90;;;;;;5054055;28;20488;-81
2022/06/10 11:32:31;;;;;;;19.98;9.85;;;18.90;81.10;;;;;;5054200;28;20037;-81
2022/06/10 11:35:02;;;;;;;12.93;8.25;;;19.10;81.50;;;;;;5053999;28;20055;-81
2022/06/10 11:37:40;;;;;;;16.10;10.15;;;19.10;81.10;;;;;;5037288;28;20041;-81
2022/06/10 11:40:15;;;;;;;17.52;8.45;;;19.00;81.00;;;;;;5053954;28;20041;-80
2022/06/10 11:42:53;;;;;;;15.68;9.07;;;19.00;80.40;;;;;;5053665;28;20048;-82
2022/06/10 11:45:37;;;;;;;16.35;10.02;;;18.80;80.30;;;;;;5037176;28;20041;-78
2022/06/10 11:48:20;;;;;;;17.95;10.65;;;18.70;82.50;;;;;;5037482;28;20393;-80
2022/06/10 11:50:53;;;;;;;11.67;8.93;;;18.70;82.40;;;;;;5053760;28;20077;-80
2022/06/10 11:53:34;;;;;;;14.00;8.63;;;18.60;82.20;;;;;;5037252;28;20111;-80
2022/06/10 12:01:42;;;;;;;14.63;8.57;;;18.50;83.60;;;;;;5059830;28;20055;-78
2022/06/10 12:04:17;;;;;;;15.93;8.38;;;18.60;84.00;;;;;;5068728;28;20412;-79
2022/06/10 12:06:56;;;;;;;12.20;7.28;;;18.90;83.50;;;;;;5055206;28;20052;-80
2022/06/10 12:09:32;;;;;;;13.40;7.00;;;19.10;83.00;;;;;;5073327;28;20040;-80
2022/06/10 12:12:13;;;;;;;16.77;7.78;;;19.20;81.80;;;;;;5072897;28;20451;-79
2022/06/10 12:15:00;;;;;;;10.85;6.32;;;19.30;81.50;;;;;;5072786;28;20144;-79
2022/06/10 12:17:35;;;;;;;5.38;3.47;;;19.50;81.50;;;;;;5073178;28;20037;-80
2022/06/10 12:20:29;;;;;;;4.78;3.00;;;19.50;78.70;;;;;;5072993;28;20036;-81
2022/06/10 12:22:55;;;;;;;9.75;5.55;;;19.50;78.90;;;;;;5056743;28;20043;-78
2022/06/10 12:25:40;;;;;;;7.93;4.53;;;19.40;79.60;;;;;;5056362;28;20423;-77
2022/06/10 12:28:20;;;;;;;8.45;3.22;;;19.40;79.60;;;;;;5073238;28;20141;-79
2022/06/10 12:30:53;;;;;;;8.80;3.60;;;19.40;78.40;;;;;;5072920;28;20044;-78
2022/06/10 12:33:54;;;;;;;7.88;4.82;;;19.30;78.80;;;;;;5072807;28;20045;-79
2022/06/10 12:36:39;;;;;;;7.57;4.40;;;19.30;79.10;;;;;;5057164;28;20498;-79
2022/06/10 12:39:14;;;;;;;11.27;4.40;;;19.40;80.00;;;;;;5072742;28;20495;-79
2022/06/10 12:41:46;;;;;;;6.85;3.60;;;19.40;80.30;;;;;;5056070;28;20076;-78
2022/06/10 12:44:22;;;;;;;5.75;3.35;;;19.60;80.20;;;;;;5056047;28;20036;-80
2022/06/10 12:47:00;;;;;;;7.55;2.60;;;19.70;78.60;;;;;;5072868;28;20040;-79
2022/06/10 12:49:39;;;;;;;8.13;2.80;;;19.60;76.70;;;;;;5072465;28;20074;-79
2022/06/10 12:52:36;;;;;;;6.03;2.90;;;19.60;77.40;;;;;;5072403;28;20036;-79
2022/06/10 12:55:22;;;;;;;6.05;2.70;;;19.60;76.30;;;;;;5055842;28;20086;-79
2022/06/10 12:57:51;;;;;;;7.38;2.53;;;19.70;77.10;;;;;;5055942;28;20094;-78
2022/06/10 13:00:22;;;;;;;6.35;2.42;;;19.90;76.90;;;;;;5056088;28;20071;-80
2022/06/10 13:03:16;;;;;;;4.88;2.20;;;19.90;75.20;;;;;;5072152;28;20044;-79
2022/06/10 13:05:44;;;;;;;5.28;2.30;;;20.00;73.40;;;;;;5072224;28;20048;-79
2022/06/10 13:08:34;;;;;;;5.05;2.60;;;20.00;71.80;;;;;;5072094;28;20040;-79
2022/06/10 13:11:01;;;;;;;6.18;2.30;;;20.00;72.00;;;;;;5055711;28;20044;-79
2022/06/10 13:13:28;;;;;;;5.63;2.85;;;20.20;69.80;;;;;;5071761;28;20052;-77
2022/06/10 13:16:25;;;;;;;7.32;2.30;;;20.40;70.00;;;;;;5071982;28;20061;-79
2022/06/10 13:18:57;;;;;;;7.75;2.97;;;20.50;68.50;;;;;;5071936;28;20092;-80
2022/06/10 13:21:34;;;;;;;7.28;2.88;;;20.70;68.20;;;;;;5055185;28;20033;-78
2022/06/10 13:23:59;;;;;;;3.72;2.20;;;20.90;67.10;;;;;;5071936;28;20123;-79
2022/06/10 13:26:27;;;;;;;7.47;2.88;;;21.00;66.90;;;;;;5055203;28;20076;-79
2022/06/10 13:29:11;;;;;;;4.47;2.50;;;21.10;66.40;;;;;;5071772;28;20127;-79
2022/06/10 13:31:50;;;;;;;10.32;3.25;;;21.40;66.60;;;;;;5055466;28;20070;-82